Decoded Metar for UTDL (KHUDZHAND in RUSSIA) (IATA:N/A) | Meteo·Mobile Aviation Weather
aviador You're here:

UTDL Decoded Metar

KHUDZHAND in RUSSIA
Report Time2019-10-21 07:00:00
UTC Time2019-10-21 07:31:42
Flight Rules vfr VFR
Wind240° at 14 kt
W.Decomp.*RWY 26: 12.8 kt HW 5.7 kt LCW
Visibility9999 m
Phenomena:N/A
Clouds:N/A
Expected CloudBase > 7,200 ft AGL from Temp-Dew spread
CeilingNone
Temp21°C (ISA +9)
Dew Point03°C (31% RH)
AAT14.5°C
QNH1021 hPa
Density Alt2,323 ft
Elevation1,450 ft
Report Wrong Elevation
Raw Report
UTDL 210700Z 24007MPS 9999 NSC 21/03 Q1021 R26/CLRD70 NOSIG RMK
QFE728/0970=

Extra information for UTDL:More info

Metar Taf Metar & Taf Last 4 Metars F.Rules Stats Wind Profile Meteogram Temp Stats Airport Information Weather charts Add Link Nearby VenuesMetar ALERT Operation Metar Decoded Social comments